Time;durP1;ratioP1;P1;durP2;ratioP2;P2;SDS_P1;SDS_P2;PMS_P1;PMS_P2;Temp;Humidity;BMP_temperature;BMP_pressure;BME280_temperature;BME280_humidity;BME280_pressure;Samples;Min_cycle;Max_cycle;Signal;HPM_P1;HPM_P2
2021/11/14 00:02:14;;;;;;;101.72;90.60;;;9.10;99.90;;;;;;5098979;28;20393;-85
2021/11/14 00:04:43;;;;;;;113.25;101.00;;;9.20;99.90;;;;;;5097366;28;20178;-85
2021/11/14 00:07:09;;;;;;;104.10;92.40;;;9.30;99.90;;;;;;5078764;28;20254;-85
2021/11/14 00:09:34;;;;;;;107.38;94.63;;;9.20;99.90;;;;;;5096257;28;20183;-85
2021/11/14 00:12:46;;;;;;;;;;;;;;;;;;;;;
2021/11/14 00:18:59;;;;;;;100.32;87.22;;;9.10;99.90;;;;;;5094215;28;20700;-85
2021/11/14 00:28:03;;;;;;;99.63;82.70;;;9.10;99.90;;;;;;5016825;28;20579;-85
2021/11/14 00:30:29;;;;;;;98.10;84.72;;;9.10;99.90;;;;;;5089505;28;20193;-85
2021/11/14 00:33:01;;;;;;;95.57;80.15;;;9.00;99.90;;;;;;5097426;28;20176;-85
2021/11/14 00:35:26;;;;;;;103.78;92.35;;;9.00;99.90;;;;;;5099023;28;20181;-85
2021/11/14 00:37:52;;;;;;;100.20;86.77;;;9.00;99.90;;;;;;5097144;28;20238;-86
2021/11/14 00:40:28;;;;;;;99.50;86.13;;;9.00;99.90;;;;;;5102831;28;20179;-85
2021/11/14 00:42:56;;;;;;;101.78;90.80;;;9.10;99.90;;;;;;5102084;28;20238;-85
2021/11/14 00:45:23;;;;;;;114.45;102.57;;;9.10;99.90;;;;;;5100931;28;20167;-85
2021/11/14 00:48:08;;;;;;;;;;;;;;;;;;;;;
2021/11/14 00:51:15;;;;;;;106.65;94.82;;;9.20;99.90;;;;;;5156381;22;20309;-85
2021/11/14 00:54:15;;;;;;;108.93;97.63;;;9.10;99.90;;;;;;5092721;28;20178;-85
2021/11/14 00:56:41;;;;;;;113.53;101.95;;;9.20;99.90;;;;;;5091540;28;20193;-85
2021/11/14 00:59:10;;;;;;;110.10;98.87;;;9.20;99.90;;;;;;5096566;28;20713;-84
2021/11/14 01:01:36;;;;;;;108.18;96.78;;;9.20;99.90;;;;;;5095182;28;20405;-85
2021/11/14 01:04:01;;;;;;;118.88;107.35;;;9.20;99.90;;;;;;5096786;28;20159;-85
2021/11/14 01:06:28;;;;;;;112.87;101.43;;;9.20;99.90;;;;;;5096612;28;20159;-85
2021/11/14 01:08:58;;;;;;;119.43;107.70;;;9.10;99.90;;;;;;5095864;28;20218;-85
2021/11/14 01:11:24;;;;;;;113.13;101.75;;;9.20;99.90;;;;;;5096923;28;20171;-85
2021/11/14 01:13:51;;;;;;;109.80;98.15;;;9.20;99.90;;;;;;5096572;28;20563;-85
2021/11/14 01:16:20;;;;;;;104.70;84.80;;;9.10;99.90;;;;;;5095027;28;20220;-85
2021/11/14 01:18:46;;;;;;;113.20;101.78;;;9.10;99.90;;;;;;5095677;28;20650;-85
2021/11/14 01:21:13;;;;;;;118.30;106.70;;;9.10;99.90;;;;;;5097276;28;20158;-85
2021/11/14 01:23:40;;;;;;;110.68;99.35;;;9.10;99.90;;;;;;5100531;28;20212;-85
2021/11/14 01:26:07;;;;;;;124.68;112.88;;;9.10;99.90;;;;;;5096254;28;20191;-85
2021/11/14 01:28:33;;;;;;;122.75;110.85;;;9.20;99.90;;;;;;5096509;28;20674;-85
2021/11/14 01:30:59;;;;;;;129.95;117.57;;;9.20;99.90;;;;;;5095686;28;20572;-85
2021/11/14 01:33:27;;;;;;;110.60;99.37;;;9.10;99.90;;;;;;5094874;28;20171;-84
2021/11/14 01:35:55;;;;;;;117.88;105.55;;;9.00;99.90;;;;;;5096029;28;20432;-85
2021/11/14 01:38:21;;;;;;;115.55;103.75;;;9.00;99.90;;;;;;5096357;28;20179;-85
2021/11/14 01:40:58;;;;;;;100.38;89.53;;;9.00;99.90;;;;;;5096477;28;20171;-85
2021/11/14 01:43:31;;;;;;;111.20;99.65;;;9.00;99.90;;;;;;5095822;28;20151;-85
2021/11/14 01:45:58;;;;;;;123.95;112.07;;;9.00;99.90;;;;;;5097051;28;20209;-85
2021/11/14 01:48:23;;;;;;;117.22;105.47;;;9.00;99.90;;;;;;5095470;28;20187;-85
2021/11/14 01:50:50;;;;;;;126.73;114.47;;;9.10;99.90;;;;;;5095190;28;20217;-85
2021/11/14 01:53:17;;;;;;;127.53;115.45;;;9.10;99.90;;;;;;5095921;28;20182;-85
2021/11/14 01:55:43;;;;;;;108.38;97.07;;;9.10;99.90;;;;;;5098653;28;20194;-85
2021/11/14 01:58:16;;;;;;;124.90;113.00;;;9.10;99.90;;;;;;5097233;28;20258;-84
2021/11/14 02:00:53;;;;;;;105.07;93.90;;;9.10;99.90;;;;;;5098375;28;20216;-84
2021/11/14 02:03:19;;;;;;;113.00;101.68;;;9.10;99.90;;;;;;5096833;28;20155;-85
2021/11/14 02:05:45;;;;;;;118.60;107.03;;;9.10;99.90;;;;;;5098259;28;20235;-85
2021/11/14 02:08:12;;;;;;;113.95;102.53;;;9.10;99.90;;;;;;5098030;28;20167;-85
2021/11/14 02:10:40;;;;;;;112.15;100.90;;;9.10;99.90;;;;;;5098424;28;20170;-85
2021/11/14 02:13:09;;;;;;;100.03;89.30;;;9.10;99.90;;;;;;5098464;28;20175;-85
2021/11/14 02:15:35;;;;;;;111.82;100.20;;;9.00;99.90;;;;;;5098161;28;20191;-85
2021/11/14 02:18:02;;;;;;;113.00;101.60;;;9.10;99.90;;;;;;5098422;28;20666;-85
2021/11/14 02:20:28;;;;;;;108.72;97.68;;;9.00;99.90;;;;;;5097292;28;20171;-85
2021/11/14 02:22:54;;;;;;;112.30;101.03;;;9.00;99.90;;;;;;5099257;28;20193;-84
2021/11/14 02:25:22;;;;;;;114.73;103.37;;;9.00;99.90;;;;;;5102834;28;20408;-85
2021/11/14 02:27:52;;;;;;;115.40;103.85;;;9.00;99.90;;;;;;5101375;28;20417;-85
2021/11/14 02:30:21;;;;;;;110.60;99.40;;;9.00;99.90;;;;;;5096341;28;20213;-85
2021/11/14 02:32:47;;;;;;;116.32;104.43;;;8.90;99.90;;;;;;5096599;28;20638;-85
2021/11/14 02:35:13;;;;;;;98.93;78.45;;;8.90;99.90;;;;;;5097686;28;20274;-85
2021/11/14 02:37:39;;;;;;;96.07;83.30;;;8.90;99.90;;;;;;5097670;28;20661;-85
2021/11/14 02:40:08;;;;;;;115.10;103.77;;;8.90;99.90;;;;;;5096245;28;20417;-85
2021/11/14 02:42:34;;;;;;;115.93;104.57;;;8.90;99.90;;;;;;5097410;28;20397;-85
2021/11/14 02:45:00;;;;;;;109.45;98.30;;;8.90;99.90;;;;;;5097044;28;20222;-84
2021/11/14 02:47:26;;;;;;;109.20;98.00;;;8.90;99.90;;;;;;5096387;28;20216;-85
2021/11/14 02:49:52;;;;;;;103.33;92.27;;;8.90;99.90;;;;;;5096284;28;20573;-85
2021/11/14 02:52:18;;;;;;;109.10;98.00;;;9.00;99.90;;;;;;5096324;28;20409;-85
2021/11/14 02:54:44;;;;;;;103.00;92.18;;;8.90;99.90;;;;;;5097195;28;20279;-85
2021/11/14 02:57:10;;;;;;;106.27;95.33;;;8.90;99.90;;;;;;5096854;28;20195;-85
2021/11/14 02:59:36;;;;;;;121.17;109.60;;;8.90;99.90;;;;;;5095473;28;20436;-84
2021/11/14 03:02:02;;;;;;;97.10;84.43;;;8.90;99.90;;;;;;5096050;28;20163;-84
2021/11/14 03:04:30;;;;;;;98.82;86.25;;;8.90;99.90;;;;;;5096007;28;20167;-84
2021/11/14 03:06:57;;;;;;;109.82;98.53;;;8.90;99.90;;;;;;5095308;28;20695;-84
2021/11/14 03:09:24;;;;;;;106.57;95.45;;;8.90;99.90;;;;;;5097056;28;20191;-84
2021/11/14 03:11:52;;;;;;;115.43;104.03;;;8.90;99.90;;;;;;5097151;28;20178;-84
2021/11/14 03:14:18;;;;;;;105.90;94.88;;;8.90;99.90;;;;;;5096708;28;20160;-84
2021/11/14 03:16:44;;;;;;;104.40;93.40;;;8.80;99.90;;;;;;5096217;28;20253;-85
2021/11/14 03:19:11;;;;;;;110.80;99.65;;;8.80;99.90;;;;;;5097884;28;20425;-85
2021/11/14 03:21:36;;;;;;;98.93;87.32;;;8.80;99.90;;;;;;5095782;28;20167;-85
2021/11/14 03:24:02;;;;;;;107.40;96.30;;;8.90;99.90;;;;;;5095925;28;20170;-85
2021/11/14 03:26:28;;;;;;;109.97;98.87;;;8.80;99.90;;;;;;5095732;28;20186;-85
2021/11/14 03:28:54;;;;;;;97.27;86.57;;;8.90;99.90;;;;;;5095257;28;20796;-85
2021/11/14 03:31:20;;;;;;;107.07;96.03;;;8.90;99.90;;;;;;5095305;28;20167;-85
2021/11/14 03:33:46;;;;;;;102.90;92.10;;;8.80;99.90;;;;;;5097525;28;20657;-84
2021/11/14 03:36:17;;;;;;;115.93;104.73;;;8.90;99.90;;;;;;5098889;28;20437;-85
2021/11/14 03:38:49;;;;;;;106.65;95.53;;;8.90;99.90;;;;;;5096944;28;20435;-85
2021/11/14 03:41:23;;;;;;;114.07;102.68;;;8.90;99.90;;;;;;5097073;28;20159;-85
2021/11/14 03:43:50;;;;;;;98.85;88.15;;;8.80;99.90;;;;;;5095906;28;20147;-84
2021/11/14 03:46:17;;;;;;;124.18;112.43;;;8.80;99.90;;;;;;5097255;28;20160;-85
2021/11/14 03:48:48;;;;;;;103.55;92.55;;;8.80;99.90;;;;;;5097318;28;20187;-85
2021/11/14 03:51:17;;;;;;;105.55;92.50;;;8.80;99.90;;;;;;5097170;28;20185;-85
2021/11/14 03:53:43;;;;;;;118.68;107.22;;;8.80;99.90;;;;;;5097972;28;20249;-85
2021/11/14 03:56:09;;;;;;;107.90;96.72;;;8.80;99.90;;;;;;5095744;28;20218;-84
2021/11/14 03:58:36;;;;;;;124.10;112.35;;;8.90;99.90;;;;;;5095065;28;20194;-85
2021/11/14 04:01:08;;;;;;;103.10;92.32;;;8.90;99.90;;;;;;5095517;28;20526;-85
2021/11/14 04:03:34;;;;;;;110.15;98.88;;;8.90;99.90;;;;;;5096944;28;20152;-85
2021/11/14 04:06:00;;;;;;;126.73;114.93;;;8.80;99.90;;;;;;5096912;28;20163;-85
2021/11/14 04:08:28;;;;;;;124.13;112.47;;;8.80;99.90;;;;;;5095954;28;20191;-85
2021/11/14 04:10:57;;;;;;;116.43;105.03;;;8.90;99.90;;;;;;5095954;28;20220;-85
2021/11/14 04:13:23;;;;;;;102.15;91.43;;;9.00;99.90;;;;;;5096023;28;20224;-84
2021/11/14 04:15:48;;;;;;;111.05;99.50;;;8.90;99.90;;;;;;5095708;28;20183;-84
2021/11/14 04:18:15;;;;;;;103.90;92.87;;;8.90;99.90;;;;;;5095353;28;20166;-85
2021/11/14 04:20:43;;;;;;;100.93;90.18;;;8.80;99.90;;;;;;5095854;28;21015;-83
2021/11/14 04:23:11;;;;;;;104.00;93.20;;;8.80;99.90;;;;;;5096310;28;20648;-84
2021/11/14 04:25:40;;;;;;;113.53;101.82;;;8.80;99.90;;;;;;5094443;28;20232;-83
2021/11/14 04:28:09;;;;;;;115.53;103.72;;;8.70;99.90;;;;;;5095147;28;20155;-83
2021/11/14 04:30:35;;;;;;;112.35;101.13;;;8.70;99.90;;;;;;5094081;28;20175;-85
2021/11/14 04:33:01;;;;;;;101.70;90.88;;;8.70;99.90;;;;;;5094075;28;20193;-85
2021/11/14 04:35:26;;;;;;;114.47;102.77;;;8.70;99.90;;;;;;5094161;28;20186;-84
2021/11/14 04:37:52;;;;;;;94.73;82.30;;;8.70;99.90;;;;;;5095029;28;20626;-84
2021/11/14 04:40:20;;;;;;;103.33;91.93;;;8.60;99.90;;;;;;5093587;28;20417;-85
2021/11/14 04:42:46;;;;;;;101.78;90.95;;;8.60;99.90;;;;;;5093715;28;20409;-84
2021/11/14 04:45:12;;;;;;;116.43;105.10;;;8.60;99.90;;;;;;5095224;28;20159;-85
2021/11/14 04:47:38;;;;;;;120.47;109.05;;;8.70;99.90;;;;;;5093777;28;20169;-85
2021/11/14 04:50:09;;;;;;;109.60;98.40;;;8.80;99.90;;;;;;5095182;28;20277;-85
2021/11/14 04:52:34;;;;;;;107.75;96.75;;;8.80;99.90;;;;;;5094503;28;20398;-85
2021/11/14 04:55:00;;;;;;;105.60;94.63;;;8.90;99.90;;;;;;5096179;28;20190;-85
2021/11/14 04:57:26;;;;;;;122.03;110.13;;;8.90;99.90;;;;;;5094686;28;20413;-85
2021/11/14 04:59:52;;;;;;;112.07;100.88;;;8.90;99.90;;;;;;5094609;28;20190;-85
2021/11/14 05:02:19;;;;;;;115.25;103.85;;;8.90;99.90;;;;;;5094470;28;20169;-85
2021/11/14 05:04:45;;;;;;;106.28;95.15;;;8.90;99.90;;;;;;5094909;28;20167;-85
2021/11/14 05:07:10;;;;;;;124.47;112.77;;;8.90;99.90;;;;;;5096019;28;20649;-84
2021/11/14 05:09:37;;;;;;;118.67;107.20;;;8.90;99.90;;;;;;5094414;28;20187;-85
2021/11/14 05:12:04;;;;;;;121.75;110.22;;;8.90;99.90;;;;;;5094788;28;20413;-85
2021/11/14 05:14:30;;;;;;;108.82;97.78;;;8.90;99.90;;;;;;5096352;28;20212;-85
2021/11/14 05:16:55;;;;;;;100.93;90.27;;;8.80;99.90;;;;;;5077616;28;20635;-84
2021/11/14 05:19:24;;;;;;;113.33;102.10;;;8.80;99.90;;;;;;5094251;28;20417;-84
2021/11/14 05:21:58;;;;;;;105.30;94.30;;;8.70;99.90;;;;;;5095722;28;20188;-84
2021/11/14 05:24:23;;;;;;;126.28;114.60;;;8.70;99.90;;;;;;5095777;28;20159;-84
2021/11/14 05:26:50;;;;;;;125.90;114.00;;;8.70;99.90;;;;;;5096127;28;20159;-84
2021/11/14 05:29:16;;;;;;;111.90;100.80;;;8.60;99.90;;;;;;5099120;28;20258;-84
2021/11/14 05:31:42;;;;;;;117.73;106.53;;;8.70;99.90;;;;;;5099316;28;20707;-84
2021/11/14 05:34:07;;;;;;;125.07;112.90;;;8.70;99.90;;;;;;5099418;28;20542;-84
2021/11/14 05:36:33;;;;;;;103.03;92.27;;;8.70;99.90;;;;;;5097490;28;20561;-84
2021/11/14 05:39:01;;;;;;;115.63;104.23;;;8.70;99.90;;;;;;5097619;28;20175;-84
2021/11/14 05:41:26;;;;;;;115.15;104.00;;;8.70;99.90;;;;;;5099624;28;20255;-84
2021/11/14 05:43:52;;;;;;;113.33;101.77;;;8.70;99.90;;;;;;5097829;28;20654;-84
2021/11/14 05:46:18;;;;;;;134.70;122.67;;;8.70;99.90;;;;;;5097993;28;20577;-84
2021/11/14 05:48:43;;;;;;;108.70;97.67;;;8.70;99.90;;;;;;5099815;28;20708;-84
2021/11/14 05:51:09;;;;;;;112.97;101.80;;;8.70;99.90;;;;;;5099700;28;20183;-84
2021/11/14 05:53:35;;;;;;;119.90;108.33;;;8.60;99.90;;;;;;5099336;28;20178;-84
2021/11/14 05:56:01;;;;;;;135.77;123.30;;;8.60;99.90;;;;;;5096699;28;20669;-84
2021/11/14 05:59:17;;;;;;;124.97;113.43;;;8.50;99.90;;;;;;5096725;28;20198;-84
2021/11/14 06:04:18;;;;;;;121.07;109.60;;;8.50;99.90;;;;;;5078353;28;20171;-84
2021/11/14 06:06:44;;;;;;;114.90;103.63;;;8.50;99.90;;;;;;5097029;28;20155;-84
2021/11/14 06:09:10;;;;;;;109.90;98.70;;;8.50;99.90;;;;;;5096929;28;20183;-84
2021/11/14 06:11:37;;;;;;;123.60;111.97;;;8.50;99.90;;;;;;5098113;28;20634;-84
2021/11/14 06:14:02;;;;;;;97.38;86.72;;;8.50;99.90;;;;;;5096632;28;20508;-85
2021/11/14 06:16:31;;;;;;;114.40;103.13;;;8.50;99.90;;;;;;5098395;28;20218;-85
2021/11/14 06:18:57;;;;;;;105.63;94.70;;;8.50;99.90;;;;;;5097836;28;20214;-84
2021/11/14 06:21:23;;;;;;;120.77;108.97;;;8.60;99.90;;;;;;5096579;28;20167;-85
2021/11/14 06:23:51;;;;;;;117.72;106.32;;;8.60;99.90;;;;;;5097894;28;20242;-84
2021/11/14 06:26:20;;;;;;;106.45;95.40;;;8.50;99.90;;;;;;5097484;28;20187;-84
2021/11/14 06:28:46;;;;;;;99.63;88.97;;;8.50;99.90;;;;;;5097667;28;20228;-84
2021/11/14 06:31:12;;;;;;;100.43;89.38;;;8.50;99.90;;;;;;5096944;28;20213;-84
2021/11/14 06:33:37;;;;;;;104.80;93.77;;;8.40;99.90;;;;;;5097760;28;20170;-84
2021/11/14 06:36:04;;;;;;;95.20;80.60;;;8.40;99.90;;;;;;5098000;28;20187;-85
2021/11/14 06:38:29;;;;;;;106.50;95.38;;;8.40;99.90;;;;;;5097449;28;20179;-85
2021/11/14 06:40:56;;;;;;;97.73;85.07;;;8.40;99.90;;;;;;5098469;28;20163;-85
2021/11/14 06:43:21;;;;;;;100.65;89.75;;;8.30;99.90;;;;;;5096528;28;20186;-85
2021/11/14 06:45:47;;;;;;;102.97;92.00;;;8.30;99.90;;;;;;5096683;28;20167;-85
2021/11/14 06:48:16;;;;;;;93.00;74.60;;;8.30;99.90;;;;;;5097792;28;20159;-85
2021/11/14 06:50:44;;;;;;;95.55;80.75;;;8.20;99.90;;;;;;5111700;22;20226;-84
2021/11/14 06:53:09;;;;;;;91.68;72.15;;;8.20;99.90;;;;;;5101932;28;20564;-84
2021/11/14 06:55:38;;;;;;;98.60;87.33;;;8.20;99.90;;;;;;5101947;28;20211;-84
2021/11/14 06:58:07;;;;;;;96.72;80.68;;;8.20;99.90;;;;;;5101801;28;20404;-83
2021/11/14 07:00:36;;;;;;;96.57;80.50;;;8.10;99.90;;;;;;5101894;28;20258;-83
2021/11/14 07:03:14;;;;;;;104.90;93.75;;;8.20;99.90;;;;;;5102089;28;20159;-84
2021/11/14 07:05:40;;;;;;;93.85;74.97;;;8.20;99.90;;;;;;5101754;28;20143;-84
2021/11/14 07:08:09;;;;;;;96.32;84.15;;;8.20;99.90;;;;;;5101823;28;20195;-83
2021/11/14 07:10:40;;;;;;;97.95;87.18;;;8.20;99.90;;;;;;5101393;28;20204;-84
2021/11/14 07:13:09;;;;;;;113.85;102.38;;;8.20;99.90;;;;;;5100060;28;20614;-84
2021/11/14 07:15:35;;;;;;;96.30;84.03;;;8.30;99.90;;;;;;5100421;28;20192;-84
2021/11/14 07:18:03;;;;;;;100.57;89.70;;;8.30;99.90;;;;;;5101379;28;20201;-84
2021/11/14 07:20:29;;;;;;;99.22;87.13;;;8.30;99.90;;;;;;5101804;28;20393;-83
2021/11/14 07:22:55;;;;;;;102.80;91.80;;;8.30;99.90;;;;;;5100522;28;20189;-84
2021/11/14 07:25:24;;;;;;;95.57;83.55;;;8.30;99.90;;;;;;5101122;28;20538;-84
2021/11/14 07:27:52;;;;;;;99.78;88.93;;;8.30;99.90;;;;;;5101632;28;20191;-83
2021/11/14 07:30:29;;;;;;;106.55;95.00;;;8.30;99.90;;;;;;5100404;28;20187;-84
2021/11/14 07:33:04;;;;;;;106.65;95.55;;;8.30;99.90;;;;;;5102047;28;20147;-84
2021/11/14 07:35:38;;;;;;;106.90;95.82;;;8.40;99.90;;;;;;5100258;28;20539;-83
2021/11/14 07:38:07;;;;;;;126.38;114.18;;;8.40;99.90;;;;;;5100441;28;20659;-83
2021/11/14 07:40:42;;;;;;;114.75;103.53;;;8.50;99.90;;;;;;5101469;28;20744;-83
2021/11/14 07:43:13;;;;;;;107.25;96.20;;;8.50;99.90;;;;;;5100455;28;20169;-84
2021/11/14 07:45:49;;;;;;;121.50;109.53;;;8.50;99.90;;;;;;5101012;28;20162;-84
2021/11/14 07:48:18;;;;;;;111.57;100.35;;;8.50;99.90;;;;;;5100615;28;20154;-84
2021/11/14 07:50:51;;;;;;;113.07;101.68;;;8.50;99.90;;;;;;5100197;28;20182;-83
2021/11/14 07:53:23;;;;;;;108.70;97.18;;;8.50;99.90;;;;;;5100004;28;20182;-83
2021/11/14 07:55:55;;;;;;;103.10;92.10;;;8.50;99.90;;;;;;5100704;28;20194;-83
2021/11/14 07:58:21;;;;;;;114.82;103.55;;;8.40;99.90;;;;;;5100327;28;20179;-84
2021/11/14 08:00:50;;;;;;;113.70;102.43;;;8.50;99.90;;;;;;5100401;28;20162;-83
2021/11/14 08:03:16;;;;;;;113.68;102.07;;;8.60;99.90;;;;;;5100424;28;20397;-83
2021/11/14 08:05:55;;;;;;;110.78;99.68;;;8.50;99.90;;;;;;5100798;28;20630;-83
2021/11/14 08:08:26;;;;;;;111.32;100.07;;;8.60;99.90;;;;;;5099764;28;20198;-83
2021/11/14 08:11:00;;;;;;;99.60;88.95;;;8.70;99.90;;;;;;5099280;28;20186;-83
2021/11/14 08:13:26;;;;;;;118.20;106.78;;;8.80;99.90;;;;;;5100548;28;20183;-83
2021/11/14 08:16:03;;;;;;;117.13;105.73;;;8.80;99.90;;;;;;5099206;28;20255;-83
2021/11/14 08:18:29;;;;;;;115.55;104.07;;;8.70;99.90;;;;;;5100455;28;20474;-83
2021/11/14 08:20:57;;;;;;;111.23;100.00;;;8.80;99.90;;;;;;5100409;28;20159;-84
2021/11/14 08:23:49;;;;;;;;;;;;;;;;;;;;;
2021/11/14 08:26:24;;;;;;;110.78;99.82;;;8.80;99.90;;;;;;5100862;28;20239;-84
2021/11/14 08:29:00;;;;;;;111.50;100.50;;;8.80;99.90;;;;;;5099785;28;20202;-84
2021/11/14 08:31:30;;;;;;;110.47;99.38;;;8.80;99.90;;;;;;5100936;28;20211;-84
2021/11/14 08:34:16;;;;;;;106.32;95.40;;;8.90;99.90;;;;;;5099628;28;20230;-84
2021/11/14 08:36:54;;;;;;;100.70;90.00;;;9.00;99.90;;;;;;5100441;28;20179;-84
2021/11/14 08:39:38;;;;;;;101.25;90.53;;;9.00;99.90;;;;;;5099291;28;20178;-84
2021/11/14 08:42:22;;;;;;;97.50;86.88;;;9.00;99.90;;;;;;5099477;28;20569;-84
2021/11/14 08:45:09;;;;;;;96.88;86.07;;;8.90;99.90;;;;;;5099572;28;20629;-84
2021/11/14 08:48:06;;;;;;;96.25;84.63;;;8.90;99.90;;;;;;5099435;28;20166;-84
2021/11/14 08:51:18;;;;;;;100.72;89.95;;;9.00;99.90;;;;;;5070269;28;20611;-84
2021/11/14 08:57:17;;;;;;;96.10;85.70;;;9.00;99.90;;;;;;5082791;28;20179;-84
2021/11/14 09:00:27;;;;;;;95.53;84.82;;;9.00;99.90;;;;;;5098483;28;20189;-84
2021/11/14 09:03:08;;;;;;;91.30;71.25;;;9.10;99.90;;;;;;5098860;28;20171;-84
2021/11/14 09:05:59;;;;;;;85.90;59.55;;;9.20;99.90;;;;;;5099649;28;20233;-84
2021/11/14 09:08:45;;;;;;;;;;;;;;;;;;;;;
2021/11/14 09:14:47;;;;;;;91.35;62.58;;;9.40;99.90;;;;;;5098784;28;20183;-84
2021/11/14 09:17:55;;;;;;;84.00;53.50;;;9.30;99.90;;;;;;5101765;28;20193;-84
2021/11/14 09:24:30;;;;;;;83.80;52.58;;;9.50;99.90;;;;;;5070994;28;20205;-84
2021/11/14 09:27:06;;;;;;;;;;;;;;;;;;;;;
2021/11/14 09:29:37;;;;;;;84.82;54.83;;;9.50;99.90;;;;;;5103344;28;20752;-84
2021/11/14 09:32:29;;;;;;;87.47;63.60;;;9.40;99.90;;;;;;5100885;28;20184;-84
2021/11/14 09:34:58;;;;;;;85.07;56.58;;;9.50;99.90;;;;;;5071247;28;20195;-84
2021/11/14 09:37:46;;;;;;;;;;;;;;;;;;;;;
2021/11/14 09:40:20;;;;;;;87.85;65.85;;;9.50;99.90;;;;;;5101495;28;20274;-84
2021/11/14 09:42:55;;;;;;;93.65;78.07;;;9.60;99.90;;;;;;5102534;28;20163;-84
2021/11/14 09:45:33;;;;;;;92.25;75.05;;;9.60;99.90;;;;;;5102526;28;20170;-84
2021/11/14 09:49:10;;;;;;;;;;;;;;;;;;;;;
2021/11/14 09:51:57;;;;;;;88.82;68.88;;;9.60;99.90;;;;;;5099072;28;20237;-84
2021/11/14 09:54:33;;;;;;;81.60;48.30;;;9.70;99.90;;;;;;5099208;28;20681;-84
2021/11/14 09:57:05;;;;;;;85.88;59.10;;;9.50;99.90;;;;;;5100702;28;20205;-84
2021/11/14 09:59:34;;;;;;;111.28;100.13;;;9.50;99.90;;;;;;5101521;28;20191;-84
2021/11/14 10:02:33;;;;;;;93.78;83.07;;;9.60;99.90;;;;;;5101730;28;20534;-84
2021/11/14 10:05:16;;;;;;;88.63;70.47;;;9.60;99.90;;;;;;5100396;28;20174;-83
2021/11/14 10:10:29;;;;;;;89.78;71.53;;;9.50;99.90;;;;;;5141025;22;20218;-84
2021/11/14 10:13:05;;;;;;;104.10;92.25;;;9.60;99.90;;;;;;5101598;28;20155;-84
2021/11/14 10:15:31;;;;;;;90.38;74.13;;;9.50;99.90;;;;;;5100246;28;20228;-84
2021/11/14 10:18:14;;;;;;;92.17;79.00;;;9.50;99.90;;;;;;5101320;28;20175;-84
2021/11/14 10:21:08;;;;;;;91.28;76.18;;;9.50;99.90;;;;;;5081154;28;20151;-84
2021/11/14 10:23:50;;;;;;;91.00;74.85;;;9.50;99.90;;;;;;5080491;28;20167;-84
2021/11/14 10:30:12;;;;;;;82.50;48.08;;;9.70;99.90;;;;;;5078989;28;20191;-83
2021/11/14 10:32:59;;;;;;;80.70;46.80;;;9.70;99.90;;;;;;5053167;28;20172;-83
2021/11/14 10:35:37;;;;;;;72.82;21.52;;;9.60;99.90;;;;;;5074030;28;20282;-83
2021/11/14 10:38:33;;;;;;;78.65;38.75;;;9.70;99.90;;;;;;5074764;28;20527;-83
2021/11/14 10:41:36;;;;;;;77.28;33.65;;;9.70;99.90;;;;;;5076242;28;20164;-83
2021/11/14 10:44:42;;;;;;;80.28;31.60;;;9.70;99.90;;;;;;5069328;28;20179;-83
2021/11/14 10:47:43;;;;;;;70.80;17.05;;;9.80;99.90;;;;;;5060634;28;20581;-83
2021/11/14 10:50:35;;;;;;;69.68;15.55;;;9.80;99.90;;;;;;5075427;28;20187;-83
2021/11/14 10:53:14;;;;;;;71.00;18.58;;;9.80;99.90;;;;;;5076314;28;20214;-83
2021/11/14 10:55:49;;;;;;;79.70;31.85;;;9.80;99.90;;;;;;5074534;28;20202;-83
2021/11/14 10:58:52;;;;;;;73.68;27.70;;;9.80;99.90;;;;;;5074486;28;20175;-83
2021/11/14 11:01:32;;;;;;;82.05;38.83;;;9.80;99.90;;;;;;5074777;28;20653;-83
2021/11/14 11:04:08;;;;;;;89.97;62.97;;;9.90;99.90;;;;;;5074316;28;20167;-83
2021/11/14 11:07:11;;;;;;;81.10;49.78;;;9.90;99.90;;;;;;5075037;28;20175;-83
2021/11/14 11:10:10;;;;;;;82.90;41.88;;;9.90;99.90;;;;;;5075694;28;20199;-83
2021/11/14 11:12:44;;;;;;;76.82;34.90;;;9.90;99.90;;;;;;5066597;28;20183;-83
2021/11/14 11:15:26;;;;;;;81.50;48.40;;;9.90;99.90;;;;;;5076488;28;20254;-83
2021/11/14 11:18:04;;;;;;;81.57;48.38;;;10.00;99.90;;;;;;5075769;28;20144;-83
2021/11/14 11:20:39;;;;;;;73.30;23.80;;;10.20;99.90;;;;;;5074321;28;20170;-83
2021/11/14 11:23:23;;;;;;;75.97;32.17;;;10.20;99.90;;;;;;5074078;28;20236;-83
2021/11/14 11:29:31;;;;;;;71.75;20.00;;;10.20;99.90;;;;;;5032847;28;20251;-83
2021/11/14 11:32:06;;;;;;;71.60;20.00;;;10.30;99.90;;;;;;5075242;28;20175;-83
2021/11/14 11:34:46;;;;;;;70.00;15.38;;;10.30;99.90;;;;;;5074517;28;20259;-83
2021/11/14 11:37:34;;;;;;;;;;;;;;;;;;;;;
2021/11/14 11:40:12;;;;;;;73.50;26.50;;;10.50;99.90;;;;;;5075353;28;20186;-83
2021/11/14 11:42:45;;;;;;;78.03;39.25;;;10.60;99.90;;;;;;5074005;28;20214;-83
2021/11/14 11:45:33;;;;;;;79.47;44.83;;;10.60;99.90;;;;;;5075141;28;20231;-83
2021/11/14 11:49:08;;;;;;;79.53;44.63;;;10.70;99.90;;;;;;5073934;28;20211;-83
2021/11/14 11:51:41;;;;;;;78.07;40.22;;;10.60;99.90;;;;;;5052087;28;20172;-82
2021/11/14 11:54:30;;;;;;;80.00;43.75;;;10.50;99.90;;;;;;5075146;28;20163;-83
2021/11/14 12:00:25;;;;;;;70.65;17.00;;;10.80;99.90;;;;;;5052242;28;20223;-83
2021/11/14 12:03:34;;;;;;;70.50;17.05;;;10.90;99.90;;;;;;5075803;28;20500;-83
2021/11/14 12:06:07;;;;;;;70.60;15.77;;;10.90;99.90;;;;;;5060304;28;20204;-83
2021/11/14 12:09:00;;;;;;;70.82;16.77;;;10.90;99.90;;;;;;5074004;28;20199;-83
2021/11/14 12:11:57;;;;;;;69.35;12.52;;;11.00;99.90;;;;;;5073605;28;20186;-83
2021/11/14 12:14:36;;;;;;;70.10;16.27;;;11.00;99.90;;;;;;5057910;28;20577;-83
2021/11/14 12:17:26;;;;;;;69.03;12.90;;;11.00;99.90;;;;;;5072707;28;20239;-83
2021/11/14 12:20:09;;;;;;;69.60;15.38;;;10.90;99.90;;;;;;5068432;28;20196;-83
2021/11/14 12:23:15;;;;;;;69.32;13.40;;;11.00;99.90;;;;;;5075016;28;20183;-83
2021/11/14 12:25:50;;;;;;;71.38;21.23;;;11.00;99.90;;;;;;5075790;28;20607;-83
2021/11/14 12:28:26;;;;;;;72.05;21.85;;;11.10;99.90;;;;;;5074129;28;20179;-83
2021/11/14 12:34:48;;;;;;;68.97;12.95;;;11.10;99.90;;;;;;4993889;28;20716;-83
2021/11/14 12:38:12;;;;;;;;;;;;;;;;;;;;;
2021/11/14 12:41:08;;;;;;;72.13;23.50;;;11.10;99.90;;;;;;4925399;28;20186;-83
2021/11/14 12:44:07;;;;;;;71.72;20.90;;;11.20;99.90;;;;;;5027227;28;20358;-83
2021/11/14 12:47:21;;;;;;;72.13;21.42;;;11.10;99.90;;;;;;5074265;28;20180;-83
2021/11/14 12:52:33;;;;;;;71.43;20.73;;;11.20;99.90;;;;;;5321976;22;20230;-89
2021/11/14 12:55:08;;;;;;;71.50;21.42;;;11.20;99.90;;;;;;5092833;28;20279;-89
2021/11/14 12:58:02;;;;;;;72.25;21.65;;;11.20;99.90;;;;;;5093755;28;20157;-89
2021/11/14 13:00:36;;;;;;;71.85;21.02;;;11.10;99.90;;;;;;5070470;28;20182;-89
2021/11/14 13:03:03;;;;;;;71.18;19.63;;;11.00;99.90;;;;;;5072927;28;20221;-89
2021/11/14 13:05:43;;;;;;;73.28;18.20;;;11.00;99.90;;;;;;5071778;28;20225;-89
2021/11/14 13:08:24;;;;;;;71.13;18.23;;;11.00;99.90;;;;;;5070175;28;20635;-89
2021/11/14 13:10:58;;;;;;;72.35;17.63;;;10.90;99.90;;;;;;5073042;28;20156;-89
2021/11/14 13:14:08;;;;;;;71.30;18.38;;;10.90;99.90;;;;;;5073282;28;20150;-89
2021/11/14 13:16:47;;;;;;;72.40;20.52;;;10.80;99.90;;;;;;5072713;28;20183;-89
2021/11/14 13:19:15;;;;;;;78.15;36.45;;;10.80;99.90;;;;;;5073350;28;20188;-89
2021/11/14 13:22:02;;;;;;;83.30;48.90;;;10.70;99.90;;;;;;5071623;28;20167;-89
2021/11/14 13:24:34;;;;;;;82.85;49.92;;;10.70;99.90;;;;;;5073065;28;20263;-89
2021/11/14 13:27:09;;;;;;;86.15;60.88;;;10.60;99.90;;;;;;5071869;28;20265;-89
2021/11/14 13:29:50;;;;;;;87.35;58.78;;;10.60;99.90;;;;;;5073041;28;20582;-89
2021/11/14 13:32:21;;;;;;;85.93;58.28;;;10.70;99.90;;;;;;5071365;28;20211;-89
2021/11/14 13:34:53;;;;;;;88.18;66.78;;;10.70;99.90;;;;;;5072781;28;20248;-89
2021/11/14 13:37:31;;;;;;;98.43;81.78;;;10.70;99.90;;;;;;5072736;28;20223;-89
2021/11/14 13:40:15;;;;;;;91.57;79.93;;;10.70;99.90;;;;;;5071306;28;20188;-89
2021/11/14 13:42:49;;;;;;;90.07;70.53;;;10.70;99.90;;;;;;5072119;28;20581;-89
2021/11/14 13:45:17;;;;;;;86.82;62.00;;;10.70;99.90;;;;;;5071387;28;20171;-89
2021/11/14 13:48:06;;;;;;;92.22;78.05;;;10.80;99.90;;;;;;5071889;28;20253;-89
2021/11/14 13:50:34;;;;;;;90.35;69.85;;;10.80;99.90;;;;;;5074902;28;20164;-90
2021/11/14 13:53:05;;;;;;;93.60;77.50;;;10.90;99.90;;;;;;5075192;28;20229;-89
2021/11/14 13:55:44;;;;;;;92.22;78.10;;;10.90;99.90;;;;;;5075025;28;20563;-89
2021/11/14 13:58:11;;;;;;;91.65;72.95;;;10.90;99.90;;;;;;5075088;28;20156;-89